createdAt,value
2018-08-30T00:00:33.600Z,18.20
2018-08-30T00:03:04.255Z,14.37
2018-08-30T00:05:34.846Z,9.63
2018-08-30T00:08:05.573Z,9.13
2018-08-30T00:10:36.244Z,7.43
2018-08-30T00:13:06.964Z,6.80
2018-08-30T00:15:37.562Z,6.57
2018-08-30T00:18:08.220Z,6.43
2018-08-30T00:20:38.880Z,6.80
2018-08-30T00:23:09.504Z,6.30
2018-08-30T00:25:40.154Z,6.07
2018-08-30T00:28:10.815Z,6.60
2018-08-30T00:30:55.709Z,6.87
2018-08-30T00:33:26.346Z,6.03
2018-08-30T00:35:56.981Z,7.03
2018-08-30T00:38:27.633Z,6.77
2018-08-30T00:40:58.243Z,6.93
2018-08-30T00:43:28.965Z,7.00
2018-08-30T00:45:59.599Z,6.80
2018-08-30T00:48:30.233Z,6.93
2018-08-30T00:51:00.903Z,7.63
2018-08-30T00:53:31.569Z,6.50
2018-08-30T00:56:02.206Z,7.67
2018-08-30T00:58:32.845Z,7.80
2018-08-30T01:01:03.591Z,8.27
2018-08-30T01:03:34.335Z,8.10
2018-08-30T01:06:05.013Z,8.53
2018-08-30T01:08:35.626Z,9.00
2018-08-30T01:11:06.744Z,9.93
2018-08-30T01:13:37.414Z,9.57
2018-08-30T01:16:08.089Z,9.47
2018-08-30T01:18:38.819Z,10.87
2018-08-30T01:21:09.442Z,10.67
2018-08-30T01:23:40.106Z,11.60
2018-08-30T01:26:10.802Z,12.50
2018-08-30T01:28:41.503Z,12.37
2018-08-30T01:31:12.131Z,14.50
2018-08-30T01:33:42.801Z,14.43
2018-08-30T01:36:13.434Z,14.13
2018-08-30T01:38:44.104Z,16.17
2018-08-30T01:41:14.770Z,16.33
2018-08-30T01:43:45.435Z,17.40
2018-08-30T01:46:16.061Z,16.77
2018-08-30T01:48:46.747Z,18.37
2018-08-30T01:51:17.394Z,17.10
2018-08-30T01:53:48.127Z,21.37
2018-08-30T01:56:18.868Z,18.87
2018-08-30T01:58:49.483Z,20.57
2018-08-30T02:01:20.143Z,18.80
2018-08-30T02:03:50.818Z,19.43
2018-08-30T02:06:21.508Z,20.57
2018-08-30T02:08:52.127Z,20.53
2018-08-30T02:11:22.786Z,21.03
2018-08-30T02:13:53.436Z,22.60
2018-08-30T02:16:24.078Z,21.07
2018-08-30T02:18:55.424Z,19.80
2018-08-30T02:21:26.079Z,20.70
2018-08-30T02:23:56.734Z,21.30
2018-08-30T02:26:27.392Z,20.83
2018-08-30T02:28:58.023Z,20.87
2018-08-30T02:31:28.705Z,19.50
2018-08-30T02:33:59.388Z,19.10
2018-08-30T02:36:29.975Z,20.37
2018-08-30T02:39:00.644Z,21.17
2018-08-30T02:41:31.301Z,21.40
2018-08-30T02:44:01.966Z,21.80
2018-08-30T02:46:32.602Z,20.93
2018-08-30T02:49:03.301Z,20.47
2018-08-30T02:51:33.868Z,19.33
2018-08-30T02:54:04.623Z,21.83
2018-08-30T02:56:35.295Z,20.70
2018-08-30T02:59:05.868Z,24.27
2018-08-30T03:01:36.571Z,24.83
2018-08-30T03:04:07.322Z,20.43
2018-08-30T03:06:38.004Z,22.47
2018-08-30T03:09:13.861Z,22.03
2018-08-30T03:11:49.854Z,20.30
2018-08-30T03:14:25.786Z,21.73
2018-08-30T03:17:01.715Z,22.23
2018-08-30T03:19:37.762Z,21.77
2018-08-30T03:22:13.723Z,22.10
2018-08-30T03:24:49.588Z,21.20
2018-08-30T03:27:25.488Z,24.53
2018-08-30T03:30:01.811Z,21.13
2018-08-30T03:32:37.738Z,26.30
2018-08-30T03:35:13.620Z,24.17
2018-08-30T03:37:49.320Z,23.03
2018-08-30T03:40:25.139Z,24.07
2018-08-30T03:43:01.092Z,22.03
2018-08-30T03:45:36.971Z,24.13
2018-08-30T03:48:12.752Z,22.10
2018-08-30T03:50:48.897Z,20.67
2018-08-30T03:53:24.835Z,21.77
2018-08-30T03:56:00.823Z,24.47
2018-08-30T03:58:36.592Z,21.00
2018-08-30T04:01:12.454Z,22.70
2018-08-30T04:03:48.332Z,23.00
2018-08-30T04:06:24.332Z,22.70
2018-08-30T04:09:00.155Z,24.37
2018-08-30T04:11:36.226Z,25.90
2018-08-30T04:14:12.147Z,25.50
2018-08-30T04:16:48.217Z,21.93
2018-08-30T04:19:24.084Z,22.33
2018-08-30T04:21:59.951Z,23.97
2018-08-30T04:24:35.948Z,22.47
2018-08-30T04:27:11.970Z,24.53
2018-08-30T04:29:47.746Z,23.77
2018-08-30T04:32:23.691Z,27.60
2018-08-30T04:34:59.681Z,26.30
2018-08-30T04:37:35.518Z,24.23
2018-08-30T04:40:11.529Z,24.83
2018-08-30T04:42:47.592Z,27.30
2018-08-30T04:45:23.440Z,27.80
2018-08-30T04:47:59.240Z,26.47
2018-08-30T04:50:35.387Z,28.27
2018-08-30T04:53:11.374Z,27.73
2018-08-30T04:55:47.255Z,29.17
2018-08-30T04:58:23.287Z,30.00
2018-08-30T05:00:59.491Z,27.93
2018-08-30T05:03:35.564Z,30.67
2018-08-30T05:06:11.443Z,31.97
2018-08-30T05:08:47.345Z,34.10
2018-08-30T05:11:23.297Z,31.13
2018-08-30T05:13:59.278Z,31.47
2018-08-30T05:16:35.332Z,27.80
2018-08-30T05:19:11.291Z,29.17
2018-08-30T05:21:47.277Z,30.27
2018-08-30T05:24:23.150Z,29.60
2018-08-30T05:26:59.241Z,31.70
2018-08-30T05:29:35.368Z,27.07
2018-08-30T05:32:11.437Z,26.70
2018-08-30T05:34:47.539Z,26.33
2018-08-30T05:37:23.550Z,26.13
2018-08-30T05:39:59.408Z,26.20
2018-08-30T05:42:35.415Z,26.20
2018-08-30T05:45:11.458Z,25.70
2018-08-30T05:47:47.461Z,27.27
2018-08-30T05:50:23.394Z,24.13
2018-08-30T05:52:59.267Z,25.53
2018-08-30T05:55:35.242Z,25.40
2018-08-30T05:58:11.018Z,28.50
2018-08-30T06:00:46.971Z,25.93
2018-08-30T06:03:23.002Z,28.07
2018-08-30T06:05:58.816Z,27.07
2018-08-30T06:08:34.861Z,23.50
2018-08-30T06:11:10.777Z,26.67
2018-08-30T06:13:46.768Z,24.50
2018-08-30T06:16:22.774Z,26.17
2018-08-30T06:18:59.209Z,24.87
2018-08-30T06:21:35.231Z,24.23
2018-08-30T06:24:11.403Z,23.53
2018-08-30T06:26:47.530Z,22.80
2018-08-30T06:29:23.550Z,23.00
2018-08-30T06:31:59.967Z,23.07
2018-08-30T06:34:35.816Z,23.27
2018-08-30T06:37:11.978Z,22.97
2018-08-30T06:39:47.888Z,22.60
2018-08-30T06:42:23.672Z,20.77
2018-08-30T06:44:59.635Z,20.30
2018-08-30T06:47:35.593Z,18.43
2018-08-30T06:50:11.574Z,21.23
2018-08-30T06:52:47.535Z,20.43
2018-08-30T06:55:23.400Z,19.83
2018-08-30T06:57:59.151Z,20.50
2018-08-30T07:00:35.040Z,19.43
2018-08-30T07:03:11.074Z,18.03
2018-08-30T07:05:46.941Z,15.37
2018-08-30T07:08:22.731Z,17.83
2018-08-30T07:10:58.712Z,16.93
2018-08-30T07:13:34.708Z,12.77
2018-08-30T07:16:10.772Z,13.13
2018-08-30T07:18:46.613Z,13.20
2018-08-30T07:21:22.622Z,14.97
2018-08-30T07:23:58.607Z,13.57
2018-08-30T07:26:34.432Z,11.07
2018-08-30T07:29:10.746Z,13.30
2018-08-30T07:31:46.777Z,10.07
2018-08-30T07:34:22.795Z,13.40
2018-08-30T07:36:58.655Z,12.90
2018-08-30T07:39:34.514Z,11.50
2018-08-30T07:42:10.340Z,11.53
2018-08-30T07:44:46.207Z,12.37
2018-08-30T07:47:22.159Z,12.13
2018-08-30T07:49:58.035Z,12.90
2018-08-30T07:52:33.848Z,9.07
2018-08-30T07:55:09.666Z,11.17
2018-08-30T07:57:45.633Z,10.33
2018-08-30T08:00:21.528Z,9.37
2018-08-30T08:02:57.455Z,8.53
2018-08-30T08:05:33.397Z,11.00
2018-08-30T08:08:09.267Z,13.17
2018-08-30T08:10:45.638Z,10.73
2018-08-30T08:13:21.581Z,12.00
2018-08-30T08:15:57.653Z,10.87
2018-08-30T08:18:33.547Z,6.97
2018-08-30T08:21:09.652Z,11.17
2018-08-30T08:23:45.571Z,7.37
2018-08-30T08:26:21.595Z,7.73
2018-08-30T08:28:57.619Z,8.87
2018-08-30T08:31:33.461Z,10.30
2018-08-30T08:34:09.512Z,11.40
2018-08-30T08:36:45.488Z,8.83
2018-08-30T08:39:21.469Z,9.17
2018-08-30T08:41:57.557Z,8.17
2018-08-30T08:44:33.597Z,7.47
2018-08-30T08:47:09.429Z,5.87
2018-08-30T08:49:45.289Z,8.37
2018-08-30T08:52:21.332Z,5.97
2018-08-30T08:54:57.095Z,8.33
2018-08-30T08:57:33.041Z,6.53
2018-08-30T09:00:08.914Z,6.80
2018-08-30T09:02:47.694Z,6.37
2018-08-30T09:05:23.793Z,8.23
2018-08-30T09:07:59.792Z,6.30
2018-08-30T09:10:35.706Z,6.10
2018-08-30T09:13:11.746Z,5.07
2018-08-30T09:15:47.772Z,5.10
2018-08-30T09:18:23.649Z,6.03
2018-08-30T09:20:59.902Z,5.07
2018-08-30T09:23:35.940Z,6.13
2018-08-30T09:26:11.848Z,6.37
2018-08-30T09:28:47.712Z,8.17
2018-08-30T09:31:23.796Z,6.67
2018-08-30T09:33:59.974Z,6.40
2018-08-30T09:36:36.040Z,11.43
2018-08-30T09:39:11.971Z,6.27
2018-08-30T09:41:47.878Z,7.47
2018-08-30T09:44:23.855Z,9.30
2018-08-30T09:46:59.784Z,5.80
2018-08-30T09:49:35.654Z,5.77
2018-08-30T09:52:11.594Z,4.43
2018-08-30T09:54:47.519Z,6.37
2018-08-30T09:57:23.566Z,9.13
2018-08-30T09:59:59.224Z,4.63
2018-08-30T10:02:47.010Z,5.97
2018-08-30T10:05:23.016Z,5.87
2018-08-30T10:07:59.237Z,5.83
2018-08-30T10:10:35.295Z,5.87
2018-08-30T10:13:11.254Z,6.87
2018-08-30T10:15:47.344Z,5.53
2018-08-30T10:18:23.539Z,4.23
2018-08-30T10:20:59.542Z,4.37
2018-08-30T10:23:35.518Z,6.03
2018-08-30T10:26:11.430Z,4.67
2018-08-30T10:28:47.347Z,5.20
2018-08-30T10:31:23.424Z,6.63
2018-08-30T10:33:59.461Z,5.57
2018-08-30T10:36:35.415Z,3.50
2018-08-30T10:39:11.339Z,5.30
2018-08-30T10:41:47.280Z,6.73
2018-08-30T10:44:23.159Z,5.40
2018-08-30T10:46:59.141Z,3.90
2018-08-30T10:49:35.239Z,5.17
2018-08-30T10:52:11.145Z,4.00
2018-08-30T10:54:47.097Z,6.63
2018-08-30T10:57:23.123Z,5.07
2018-08-30T10:59:59.060Z,4.43
2018-08-30T11:02:35.150Z,5.30
2018-08-30T11:05:11.072Z,4.07
2018-08-30T11:07:46.996Z,6.67
2018-08-30T11:10:22.901Z,5.73
2018-08-30T11:12:59.125Z,7.13
2018-08-30T11:15:35.098Z,5.60
2018-08-30T11:18:11.112Z,6.53
2018-08-30T11:20:46.967Z,5.37
2018-08-30T11:23:22.977Z,7.93
2018-08-30T11:25:58.972Z,4.33
2018-08-30T11:28:35.004Z,7.73
2018-08-30T11:31:10.799Z,4.80
2018-08-30T11:33:46.598Z,3.13
2018-08-30T11:36:22.385Z,5.77
2018-08-30T11:38:58.347Z,4.13
2018-08-30T11:41:34.379Z,4.30
2018-08-30T11:44:10.455Z,3.67
2018-08-30T11:46:46.410Z,5.33
2018-08-30T11:49:22.368Z,6.30
2018-08-30T11:51:58.288Z,5.47
2018-08-30T11:54:34.217Z,5.57
2018-08-30T11:57:10.199Z,6.07
2018-08-30T11:59:46.106Z,4.97
2018-08-30T12:02:21.988Z,3.63
2018-08-30T12:04:58.100Z,4.63
2018-08-30T12:07:34.058Z,4.57
2018-08-30T12:10:10.119Z,5.47
2018-08-30T12:12:46.110Z,3.73
2018-08-30T12:15:22.113Z,4.03
2018-08-30T12:17:58.046Z,3.73
2018-08-30T12:20:34.040Z,4.00
2018-08-30T12:23:10.038Z,5.87
2018-08-30T12:25:46.113Z,6.10
2018-08-30T12:28:22.149Z,3.13
2018-08-30T12:30:58.335Z,3.63
2018-08-30T12:33:34.301Z,5.17
2018-08-30T12:36:10.561Z,4.20
2018-08-30T12:38:46.714Z,3.03
2018-08-30T12:41:22.602Z,3.00
2018-08-30T12:43:58.723Z,2.30
2018-08-30T12:46:34.757Z,3.87
2018-08-30T12:49:10.658Z,4.30
2018-08-30T12:51:46.783Z,2.67
2018-08-30T12:54:22.724Z,4.13
2018-08-30T12:56:58.702Z,4.33
2018-08-30T12:59:39.607Z,2.50
2018-08-30T13:02:15.672Z,4.43
2018-08-30T13:04:51.706Z,3.13
2018-08-30T13:07:28.020Z,3.77
2018-08-30T13:10:04.268Z,3.60
2018-08-30T13:12:40.399Z,3.77
2018-08-30T13:15:16.391Z,4.93
2018-08-30T13:17:52.265Z,3.03
2018-08-30T13:20:28.551Z,4.53
2018-08-30T13:23:04.345Z,3.87
2018-08-30T13:25:40.367Z,3.10
2018-08-30T13:28:16.454Z,5.43
2018-08-30T13:30:52.603Z,3.53
2018-08-30T13:33:28.559Z,4.77
2018-08-30T13:36:04.864Z,3.20
2018-08-30T13:38:41.337Z,2.00
2018-08-30T13:41:17.286Z,3.27
2018-08-30T13:43:53.407Z,4.27
2018-08-30T13:46:29.453Z,3.53
2018-08-30T13:49:05.391Z,7.13
2018-08-30T13:51:41.398Z,5.10
2018-08-30T13:54:17.412Z,2.87
2018-08-30T13:56:53.421Z,5.60
2018-08-30T13:59:29.489Z,4.07
2018-08-30T14:02:05.493Z,4.90
2018-08-30T14:04:41.323Z,5.80
2018-08-30T14:07:17.336Z,6.90
2018-08-30T14:09:53.257Z,4.03
2018-08-30T14:12:29.271Z,4.80
2018-08-30T14:15:05.610Z,6.30
2018-08-30T14:17:41.008Z,3.47
2018-08-30T14:20:16.915Z,5.37
2018-08-30T14:22:52.966Z,4.37
2018-08-30T14:25:29.079Z,4.27
2018-08-30T14:28:05.031Z,3.70
2018-08-30T14:30:40.972Z,4.27
2018-08-30T14:33:17.125Z,3.70
2018-08-30T14:35:52.855Z,4.90
2018-08-30T14:38:28.695Z,5.23
2018-08-30T14:41:04.668Z,6.97
2018-08-30T14:43:40.451Z,3.57
2018-08-30T14:46:16.388Z,5.43
2018-08-30T14:48:52.343Z,3.63
2018-08-30T14:51:28.338Z,4.77
2018-08-30T14:54:04.571Z,4.30
2018-08-30T14:56:41.141Z,5.50
2018-08-30T14:59:17.187Z,6.80
2018-08-30T15:01:53.033Z,4.37
2018-08-30T15:04:29.102Z,5.33
2018-08-30T15:07:05.158Z,5.53
2018-08-30T15:09:41.148Z,6.13
2018-08-30T15:12:16.996Z,4.57
2018-08-30T15:14:53.057Z,4.40
2018-08-30T15:17:29.089Z,4.73
2018-08-30T15:20:05.147Z,3.83
2018-08-30T15:22:40.877Z,5.27
2018-08-30T15:25:16.812Z,2.77
2018-08-30T15:27:52.745Z,4.33
2018-08-30T15:30:28.746Z,5.47
2018-08-30T15:33:04.865Z,4.17
2018-08-30T15:35:40.876Z,3.23
2018-08-30T15:38:16.706Z,3.97
2018-08-30T15:40:52.751Z,4.17
2018-08-30T15:43:28.848Z,4.13
2018-08-30T15:46:04.772Z,6.80
2018-08-30T15:48:40.736Z,8.33
2018-08-30T15:51:16.796Z,7.23
2018-08-30T15:53:52.789Z,4.57
2018-08-30T15:56:28.797Z,5.20
2018-08-30T15:59:05.005Z,4.27
2018-08-30T16:01:40.821Z,5.53
2018-08-30T16:04:16.867Z,3.40
2018-08-30T16:06:52.874Z,3.53
2018-08-30T16:09:28.766Z,5.73
2018-08-30T16:12:04.853Z,7.47
2018-08-30T16:14:40.748Z,5.53
2018-08-30T16:17:16.898Z,10.30
2018-08-30T16:19:52.987Z,6.13
2018-08-30T16:23:43.325Z,4.63
2018-08-30T16:26:19.297Z,6.10
2018-08-30T16:28:55.364Z,3.83
2018-08-30T16:31:31.521Z,5.43
2018-08-30T16:34:08.392Z,4.83
2018-08-30T16:36:44.412Z,5.33
2018-08-30T16:39:20.677Z,6.10
2018-08-30T16:41:56.627Z,3.57
2018-08-30T16:44:32.724Z,4.67
2018-08-30T16:47:08.925Z,4.13
2018-08-30T16:49:44.945Z,3.87
2018-08-30T16:52:20.955Z,4.07
2018-08-30T16:54:56.953Z,6.27
2018-08-30T16:57:32.895Z,5.70
2018-08-30T17:00:09.076Z,4.27
2018-08-30T17:02:45.033Z,4.87
2018-08-30T17:05:21.015Z,3.77
2018-08-30T17:07:57.259Z,3.83
2018-08-30T17:10:33.399Z,3.63
2018-08-30T17:13:10.102Z,3.60
2018-08-30T17:15:46.287Z,5.27
2018-08-30T17:18:22.328Z,4.83
2018-08-30T17:20:58.849Z,6.30
2018-08-30T17:23:34.985Z,4.03
2018-08-30T17:26:11.218Z,4.07
2018-08-30T17:28:47.333Z,2.60
2018-08-30T17:31:23.381Z,4.17
2018-08-30T17:33:59.312Z,3.17
2018-08-30T17:36:35.301Z,4.57
2018-08-30T17:39:12.094Z,4.03
2018-08-30T17:41:47.797Z,4.90
2018-08-30T17:44:23.833Z,5.17
2018-08-30T17:46:59.855Z,5.07
2018-08-30T17:49:35.901Z,6.17
2018-08-30T17:52:12.110Z,6.00
2018-08-30T17:54:48.246Z,5.27
2018-08-30T17:57:24.121Z,5.20
2018-08-30T18:00:00.139Z,4.60
2018-08-30T18:02:36.248Z,5.70
2018-08-30T18:05:12.522Z,5.43
2018-08-30T18:07:48.472Z,5.03
2018-08-30T18:10:24.622Z,4.33
2018-08-30T18:13:00.679Z,6.83
2018-08-30T18:15:36.554Z,3.90
2018-08-30T18:18:12.728Z,3.20
2018-08-30T18:20:48.612Z,4.30
2018-08-30T18:23:24.859Z,3.80
2018-08-30T18:26:00.956Z,5.20
2018-08-30T18:28:37.155Z,5.23
2018-08-30T18:31:13.154Z,5.50
2018-08-30T18:33:49.281Z,3.77
2018-08-30T18:36:25.448Z,3.87
2018-08-30T18:39:01.611Z,6.10
2018-08-30T18:41:37.992Z,5.20
2018-08-30T18:44:14.277Z,4.13
2018-08-30T18:46:50.361Z,4.43
2018-08-30T18:49:26.377Z,7.60
2018-08-30T18:52:02.364Z,3.30
2018-08-30T18:54:38.764Z,4.13
2018-08-30T18:57:14.953Z,6.57
2018-08-30T18:59:51.071Z,4.80
2018-08-30T19:02:26.963Z,5.17
2018-08-30T19:05:03.432Z,3.87
2018-08-30T19:07:39.402Z,4.67
2018-08-30T19:10:15.470Z,4.17
2018-08-30T19:12:51.541Z,6.30
2018-08-30T19:15:33.011Z,6.90
2018-08-30T19:18:14.157Z,4.80
2018-08-30T19:20:50.041Z,4.83
2018-08-30T19:23:25.935Z,6.47
2018-08-30T19:26:01.896Z,3.13
2018-08-30T19:28:37.992Z,4.53
2018-08-30T19:31:13.922Z,6.17
2018-08-30T19:33:49.900Z,4.37
2018-08-30T19:36:29.936Z,5.37
2018-08-30T19:39:10.374Z,2.63
2018-08-30T19:41:46.731Z,4.93
2018-08-30T19:44:22.753Z,7.30
2018-08-30T19:46:58.948Z,2.80
2018-08-30T19:49:35.012Z,3.97
2018-08-30T19:52:11.036Z,4.33
2018-08-30T19:54:48.218Z,6.17
2018-08-30T19:57:24.392Z,6.17
2018-08-30T20:00:00.459Z,6.90
2018-08-30T20:02:36.509Z,4.43
2018-08-30T20:05:12.725Z,5.20
2018-08-30T20:07:48.837Z,5.50
2018-08-30T20:10:25.045Z,4.53
2018-08-30T20:13:01.026Z,8.03
2018-08-30T20:15:36.934Z,4.03
2018-08-30T20:18:12.972Z,4.33
2018-08-30T20:20:49.089Z,3.60
2018-08-30T20:23:25.001Z,6.20
2018-08-30T20:26:00.905Z,5.67
2018-08-30T20:28:37.054Z,2.93
2018-08-30T20:31:13.116Z,4.77
2018-08-30T20:33:49.156Z,2.93
2018-08-30T20:36:25.082Z,3.73
2018-08-30T20:39:01.080Z,5.40
2018-08-30T20:41:37.089Z,2.37
2018-08-30T20:44:13.217Z,3.60
2018-08-30T20:46:49.246Z,4.20
2018-08-30T20:49:25.170Z,5.23
2018-08-30T20:52:01.269Z,4.57
2018-08-30T20:54:37.232Z,3.03
2018-08-30T20:57:13.271Z,6.33
2018-08-30T20:59:49.417Z,3.77
2018-08-30T21:02:25.843Z,7.20
2018-08-30T21:05:01.862Z,4.40
2018-08-30T21:07:37.954Z,4.60
2018-08-30T21:10:14.118Z,3.83
2018-08-30T21:12:50.045Z,3.20
2018-08-30T21:15:26.314Z,4.60
2018-08-30T21:18:02.354Z,4.23
2018-08-30T21:20:38.431Z,4.50
2018-08-30T21:23:14.496Z,5.23
2018-08-30T21:25:50.480Z,4.73
2018-08-30T21:28:26.583Z,4.60
2018-08-30T21:31:02.573Z,5.43
2018-08-30T21:33:38.498Z,4.50
2018-08-30T21:36:14.548Z,6.40
2018-08-30T21:38:50.603Z,7.87
2018-08-30T21:41:26.651Z,4.97
2018-08-30T21:44:02.688Z,5.03
2018-08-30T21:46:38.855Z,4.73
2018-08-30T21:49:14.908Z,3.47
2018-08-30T21:51:51.045Z,5.23
2018-08-30T21:54:26.915Z,5.67
2018-08-30T21:57:02.940Z,4.57
2018-08-30T21:59:38.963Z,6.33
2018-08-30T22:02:14.988Z,4.53
2018-08-30T22:04:51.136Z,4.63
2018-08-30T22:07:27.123Z,4.67
2018-08-30T22:10:03.134Z,5.60
2018-08-30T22:12:38.991Z,3.37
2018-08-30T22:15:14.872Z,3.77
2018-08-30T22:17:50.806Z,5.97
2018-08-30T22:20:26.699Z,6.17
2018-08-30T22:23:02.766Z,5.43
2018-08-30T22:25:38.695Z,3.97
2018-08-30T22:28:14.749Z,6.47
2018-08-30T22:30:50.688Z,5.97
2018-08-30T22:33:26.733Z,6.27
2018-08-30T22:36:02.599Z,4.87
2018-08-30T22:38:38.635Z,3.70
2018-08-30T22:41:14.599Z,3.90
2018-08-30T22:43:50.591Z,4.73
2018-08-30T22:46:26.622Z,5.60
2018-08-30T22:49:02.385Z,5.97
2018-08-30T22:51:38.403Z,6.40
2018-08-30T22:54:14.359Z,11.03
2018-08-30T22:56:50.185Z,5.03
2018-08-30T22:59:26.105Z,4.83
2018-08-30T23:02:02.153Z,5.17
2018-08-30T23:04:38.192Z,7.03
2018-08-30T23:07:14.196Z,4.57
2018-08-30T23:09:50.084Z,4.10
2018-08-30T23:12:25.969Z,3.93
2018-08-30T23:15:02.079Z,5.00
2018-08-30T23:17:37.865Z,6.43
2018-08-30T23:20:13.755Z,4.97
2018-08-30T23:22:49.592Z,3.17
2018-08-30T23:25:25.587Z,5.60
2018-08-30T23:28:01.449Z,4.87
2018-08-30T23:30:37.413Z,4.10
2018-08-30T23:33:13.329Z,6.13
2018-08-30T23:35:49.138Z,3.30
2018-08-30T23:38:25.096Z,5.50
2018-08-30T23:41:00.957Z,3.73
2018-08-30T23:43:37.036Z,3.93
2018-08-30T23:46:13.060Z,5.40
2018-08-30T23:48:48.874Z,6.13
2018-08-30T23:51:24.859Z,8.23
2018-08-30T23:54:00.788Z,2.93
2018-08-30T23:56:36.769Z,4.33
2018-08-30T23:59:29.545Z,3.83
